Time;durP1;ratioP1;P1;durP2;ratioP2;P2;SDS_P1;SDS_P2;PMS_P1;PMS_P2;Temp;Humidity;BMP_temperature;BMP_pressure;BME280_temperature;BME280_humidity;BME280_pressure;Samples;Min_cycle;Max_cycle;Signal;HPM_P1;HPM_P2
2023/06/25 00:00:27;;;;;;;8.57;7.78;;;21.60;99.90;;;;;;5091179;28;20043;-56
2023/06/25 00:02:53;;;;;;;10.48;7.80;;;21.60;99.90;;;;;;5091248;28;20032;-55
2023/06/25 00:05:20;;;;;;;8.68;7.78;;;21.60;99.90;;;;;;5090073;28;20028;-55
2023/06/25 00:07:46;;;;;;;8.82;8.02;;;21.70;99.90;;;;;;5090912;28;20039;-56
2023/06/25 00:10:12;;;;;;;8.60;7.90;;;21.70;99.90;;;;;;5091078;28;20028;-56
2023/06/25 00:12:38;;;;;;;8.73;7.90;;;21.60;99.90;;;;;;5090952;28;20036;-56
2023/06/25 00:15:05;;;;;;;8.43;7.72;;;21.70;99.90;;;;;;5091066;28;20024;-55
2023/06/25 00:17:30;;;;;;;8.07;7.38;;;21.60;99.90;;;;;;5091316;28;20063;-56
2023/06/25 00:19:57;;;;;;;8.65;7.63;;;21.70;99.90;;;;;;5090709;28;20051;-56
2023/06/25 00:22:23;;;;;;;8.60;7.70;;;21.60;99.90;;;;;;5090595;28;20075;-57
2023/06/25 00:24:49;;;;;;;8.52;7.80;;;21.50;99.90;;;;;;5091014;28;20016;-55
2023/06/25 00:27:15;;;;;;;8.63;7.82;;;21.50;99.90;;;;;;5090807;28;20027;-56
2023/06/25 00:29:40;;;;;;;8.10;7.30;;;21.40;99.90;;;;;;5091028;28;20029;-56
2023/06/25 00:32:07;;;;;;;9.77;7.75;;;21.20;99.90;;;;;;5092231;28;20048;-56
2023/06/25 00:34:40;;;;;;;10.48;8.30;;;21.10;99.90;;;;;;5095029;28;20066;-56
2023/06/25 00:37:16;;;;;;;8.82;8.07;;;21.00;99.90;;;;;;5094576;28;20398;-55
2023/06/25 00:39:43;;;;;;;8.45;7.75;;;20.90;99.90;;;;;;5095101;28;20455;-56
2023/06/25 00:42:09;;;;;;;8.93;8.02;;;20.80;99.90;;;;;;5094800;28;20024;-56
2023/06/25 00:44:40;;;;;;;8.52;7.75;;;20.70;99.90;;;;;;5094681;28;20475;-56
2023/06/25 00:47:08;;;;;;;8.43;7.68;;;20.80;99.90;;;;;;5094608;28;20030;-56
2023/06/25 00:49:34;;;;;;;8.93;8.13;;;20.60;99.90;;;;;;5094929;28;20024;-55
2023/06/25 00:52:00;;;;;;;8.80;8.00;;;20.50;99.90;;;;;;5094126;28;20028;-56
2023/06/25 00:54:26;;;;;;;9.65;8.70;;;20.50;99.90;;;;;;5094584;28;20031;-56
2023/06/25 00:56:52;;;;;;;10.55;8.43;;;20.50;99.90;;;;;;5094490;28;20035;-56
2023/06/25 00:59:17;;;;;;;9.05;8.25;;;20.50;99.90;;;;;;5094861;28;20028;-56
2023/06/25 01:01:54;;;;;;;9.43;8.40;;;20.50;99.90;;;;;;5094436;28;20024;-56
2023/06/25 01:04:25;;;;;;;8.57;7.88;;;20.40;99.90;;;;;;5093986;28;20019;-56
2023/06/25 01:06:54;;;;;;;8.45;7.65;;;20.40;99.90;;;;;;5094162;28;20028;-55
2023/06/25 01:09:20;;;;;;;8.45;7.65;;;20.40;99.90;;;;;;5094074;28;20502;-56
2023/06/25 01:12:07;;;;;;;8.68;7.88;;;20.40;99.90;;;;;;5094272;28;20101;-54
2023/06/25 01:14:34;;;;;;;10.45;7.68;;;20.40;99.90;;;;;;5094006;28;20043;-54
2023/06/25 01:17:00;;;;;;;9.15;8.27;;;20.40;99.90;;;;;;5093900;28;20040;-56
2023/06/25 01:19:31;;;;;;;8.40;7.75;;;20.40;99.90;;;;;;5093857;28;20432;-56
2023/06/25 01:22:02;;;;;;;8.68;7.88;;;20.40;99.90;;;;;;5093587;28;20064;-56
2023/06/25 01:24:28;;;;;;;8.80;7.90;;;20.50;99.90;;;;;;5093912;28;20028;-56
2023/06/25 01:26:56;;;;;;;8.27;7.57;;;20.50;99.90;;;;;;5093950;28;20057;-56
2023/06/25 01:29:22;;;;;;;9.35;7.90;;;20.60;99.90;;;;;;5093720;28;20394;-56
2023/06/25 01:31:51;;;;;;;8.90;8.10;;;20.60;99.90;;;;;;5093759;28;20102;-53
2023/06/25 01:34:19;;;;;;;10.05;8.30;;;20.50;99.90;;;;;;5093548;28;20075;-56
2023/06/25 01:36:51;;;;;;;9.32;8.43;;;20.40;99.90;;;;;;5093554;28;20036;-56
2023/06/25 01:39:19;;;;;;;8.63;7.70;;;20.40;99.90;;;;;;5094042;28;20104;-56
2023/06/25 01:41:45;;;;;;;8.90;8.00;;;20.30;99.90;;;;;;5093681;28;20028;-56
2023/06/25 01:44:14;;;;;;;10.82;8.13;;;20.40;99.90;;;;;;5093448;28;20023;-56
2023/06/25 01:46:40;;;;;;;7.97;7.30;;;20.30;99.90;;;;;;5093744;28;20024;-56
2023/06/25 01:49:05;;;;;;;8.82;7.93;;;20.20;99.90;;;;;;5093114;28;20504;-56
2023/06/25 01:51:31;;;;;;;8.90;8.00;;;20.10;99.90;;;;;;5093391;28;20096;-56
2023/06/25 01:53:58;;;;;;;8.70;7.95;;;20.00;99.90;;;;;;5093408;28;20478;-56
2023/06/25 01:56:24;;;;;;;8.45;7.65;;;20.00;99.90;;;;;;5092094;28;20036;-56
2023/06/25 01:58:52;;;;;;;8.90;7.85;;;19.90;99.90;;;;;;5093179;28;20092;-56
2023/06/25 02:01:19;;;;;;;8.48;7.72;;;19.90;99.90;;;;;;5093548;28;20023;-56
2023/06/25 02:03:44;;;;;;;8.75;7.95;;;20.00;99.90;;;;;;5092863;28;20081;-56
2023/06/25 02:06:10;;;;;;;9.75;8.10;;;20.00;99.90;;;;;;5093214;28;20032;-55
2023/06/25 02:08:36;;;;;;;8.55;7.75;;;19.90;99.90;;;;;;5093140;28;20039;-55
2023/06/25 02:11:01;;;;;;;8.35;7.55;;;19.90;99.90;;;;;;5093058;28;20040;-56
2023/06/25 02:13:27;;;;;;;8.77;7.97;;;19.80;99.90;;;;;;5092898;28;20418;-55
2023/06/25 02:15:53;;;;;;;8.52;7.72;;;19.80;99.90;;;;;;5093174;28;20406;-56
2023/06/25 02:18:18;;;;;;;8.45;7.75;;;19.80;99.90;;;;;;5092310;28;20028;-56
2023/06/25 02:20:44;;;;;;;9.15;8.35;;;19.80;99.90;;;;;;5092776;28;20111;-56
2023/06/25 02:23:10;;;;;;;9.23;8.32;;;19.70;99.90;;;;;;5092644;28;20044;-56
2023/06/25 02:25:36;;;;;;;9.27;8.38;;;19.70;99.90;;;;;;5092917;28;20048;-55
2023/06/25 02:28:01;;;;;;;8.55;7.75;;;19.80;99.90;;;;;;5093071;28;20081;-55
2023/06/25 02:30:27;;;;;;;9.20;8.48;;;19.80;99.90;;;;;;5092659;28;20032;-56
2023/06/25 02:32:52;;;;;;;9.30;8.43;;;19.90;99.90;;;;;;5092174;28;20032;-56
2023/06/25 02:35:18;;;;;;;9.52;8.68;;;19.80;99.90;;;;;;5092566;28;20039;-56
2023/06/25 02:37:44;;;;;;;10.07;9.18;;;19.70;99.90;;;;;;5092617;28;20031;-56
2023/06/25 02:40:10;;;;;;;10.07;9.13;;;19.80;99.90;;;;;;5092415;28;20027;-56
2023/06/25 02:42:36;;;;;;;9.70;8.88;;;19.70;99.90;;;;;;5092488;28;20051;-56
2023/06/25 02:45:02;;;;;;;9.50;8.50;;;19.70;99.90;;;;;;5092508;28;20052;-55
2023/06/25 02:47:27;;;;;;;10.20;9.20;;;19.60;99.90;;;;;;5092121;28;20031;-56
2023/06/25 02:49:53;;;;;;;9.30;8.50;;;19.60;99.90;;;;;;5092472;28;20432;-54
2023/06/25 02:52:19;;;;;;;9.75;8.25;;;19.60;99.90;;;;;;5092243;28;20024;-55
2023/06/25 02:54:44;;;;;;;9.35;8.55;;;19.50;99.90;;;;;;5091798;28;20130;-56
2023/06/25 02:57:10;;;;;;;9.57;8.70;;;19.50;99.90;;;;;;5092558;28;20036;-56
2023/06/25 02:59:35;;;;;;;9.02;8.32;;;19.50;99.90;;;;;;5092101;28;20031;-55
2023/06/25 03:02:01;;;;;;;9.63;8.80;;;19.30;99.90;;;;;;5091739;28;20023;-55
2023/06/25 03:04:27;;;;;;;9.77;8.88;;;19.30;99.90;;;;;;5092168;28;20055;-56
2023/06/25 03:06:53;;;;;;;8.70;7.90;;;19.10;99.90;;;;;;5091981;28;20078;-54
2023/06/25 03:09:18;;;;;;;9.68;8.73;;;19.10;99.90;;;;;;5091971;28;20028;-56
2023/06/25 03:11:44;;;;;;;9.35;8.18;;;19.00;99.90;;;;;;5091909;28;20031;-56
2023/06/25 03:14:10;;;;;;;9.90;8.85;;;19.00;99.90;;;;;;5092139;28;20051;-56
2023/06/25 03:16:35;;;;;;;9.98;9.18;;;18.90;99.90;;;;;;5091376;28;20036;-57
2023/06/25 03:19:01;;;;;;;9.43;8.63;;;18.90;99.90;;;;;;5090746;28;20486;-56
2023/06/25 03:21:27;;;;;;;9.75;8.88;;;18.90;99.90;;;;;;5091625;28;20064;-56
2023/06/25 03:23:53;;;;;;;10.00;9.20;;;18.80;99.90;;;;;;5091604;28;20062;-53
2023/06/25 03:26:18;;;;;;;10.02;9.05;;;18.70;99.90;;;;;;5091716;28;20060;-56
2023/06/25 03:28:44;;;;;;;10.55;9.65;;;18.70;99.90;;;;;;5091638;28;20016;-56
2023/06/25 03:31:10;;;;;;;11.10;10.00;;;18.70;99.90;;;;;;5091663;28;20118;-56
2023/06/25 03:33:35;;;;;;;10.80;9.80;;;18.70;99.90;;;;;;5091561;28;20031;-55
2023/06/25 03:36:01;;;;;;;11.75;10.65;;;18.60;99.90;;;;;;5091427;28;20032;-56
2023/06/25 03:38:27;;;;;;;11.88;10.70;;;18.60;99.90;;;;;;5091508;28;20032;-56
2023/06/25 03:40:52;;;;;;;11.43;10.45;;;18.70;99.90;;;;;;5091434;28;20035;-56
2023/06/25 03:43:18;;;;;;;11.40;10.50;;;18.80;99.90;;;;;;5091669;28;20032;-56
2023/06/25 03:45:44;;;;;;;10.90;9.95;;;18.90;99.90;;;;;;5091041;28;20028;-55
2023/06/25 03:48:09;;;;;;;11.30;10.30;;;18.90;99.90;;;;;;5091369;28;20024;-55
2023/06/25 03:50:35;;;;;;;11.15;10.23;;;18.90;99.90;;;;;;5091267;28;20492;-55
2023/06/25 03:53:01;;;;;;;11.73;10.65;;;19.10;99.90;;;;;;5091624;28;20360;-55
2023/06/25 03:55:26;;;;;;;11.75;10.65;;;19.20;99.90;;;;;;5091222;28;20032;-56
2023/06/25 03:57:56;;;;;;;11.00;10.10;;;19.10;99.90;;;;;;5091245;28;20036;-56
2023/06/25 04:00:22;;;;;;;11.20;10.30;;;19.00;99.90;;;;;;5091393;28;20031;-56
2023/06/25 04:02:47;;;;;;;10.95;9.98;;;18.90;99.90;;;;;;5091087;28;20035;-56
2023/06/25 04:05:13;;;;;;;11.77;10.73;;;18.80;99.90;;;;;;5091228;28;20020;-56
2023/06/25 04:07:39;;;;;;;11.52;10.52;;;18.90;99.90;;;;;;5094093;28;20089;-56
2023/06/25 04:10:05;;;;;;;12.30;11.10;;;18.90;99.90;;;;;;5095329;28;20020;-56
2023/06/25 04:12:30;;;;;;;11.98;10.93;;;18.80;99.90;;;;;;5095226;28;20095;-56
2023/06/25 04:14:57;;;;;;;11.98;10.68;;;18.60;99.90;;;;;;5094800;28;20111;-56
2023/06/25 04:17:22;;;;;;;12.68;11.60;;;18.50;99.90;;;;;;5095202;28;20047;-56
2023/06/25 04:19:48;;;;;;;11.70;10.75;;;18.50;99.90;;;;;;5094315;28;20071;-56
2023/06/25 04:22:14;;;;;;;11.95;10.95;;;18.40;99.90;;;;;;5095046;28;20040;-56
2023/06/25 04:24:39;;;;;;;11.63;10.73;;;18.40;99.90;;;;;;5095082;28;20020;-55
2023/06/25 04:27:05;;;;;;;11.52;10.60;;;18.30;99.90;;;;;;5095079;28;20483;-56
2023/06/25 04:29:31;;;;;;;11.55;10.65;;;18.30;99.90;;;;;;5094678;28;20067;-56
2023/06/25 04:31:57;;;;;;;11.40;10.50;;;18.20;99.90;;;;;;5095403;28;20036;-56
2023/06/25 04:34:22;;;;;;;12.70;11.57;;;18.10;99.90;;;;;;5094981;28;20035;-56
2023/06/25 04:36:48;;;;;;;12.02;10.93;;;18.10;99.90;;;;;;5094844;28;20120;-55
2023/06/25 04:39:14;;;;;;;11.55;10.40;;;18.20;99.90;;;;;;5094896;28;20020;-55
2023/06/25 04:41:39;;;;;;;11.65;10.65;;;18.20;99.90;;;;;;5094916;28;20036;-56
2023/06/25 04:44:05;;;;;;;11.60;10.68;;;18.20;99.90;;;;;;5094422;28;20434;-56
2023/06/25 04:46:31;;;;;;;12.35;11.25;;;18.20;99.90;;;;;;5095128;28;20379;-56
2023/06/25 04:48:57;;;;;;;12.38;11.32;;;18.20;99.90;;;;;;5094723;28;20051;-56
2023/06/25 04:51:23;;;;;;;11.45;10.55;;;18.20;99.90;;;;;;5094392;28;20047;-57
2023/06/25 04:53:48;;;;;;;12.82;11.63;;;18.10;99.90;;;;;;5094766;28;20032;-55
2023/06/25 04:56:15;;;;;;;12.13;11.13;;;18.30;99.90;;;;;;5094451;28;20036;-56
2023/06/25 04:58:41;;;;;;;12.52;11.32;;;18.40;99.90;;;;;;5094093;28;20406;-55
2023/06/25 05:01:07;;;;;;;12.73;11.38;;;18.50;99.90;;;;;;5094517;28;20055;-56
2023/06/25 05:03:32;;;;;;;12.02;11.02;;;18.50;99.90;;;;;;5094362;28;20073;-56
2023/06/25 05:05:58;;;;;;;12.02;11.02;;;18.60;99.90;;;;;;5094268;28;20025;-55
2023/06/25 05:08:24;;;;;;;12.02;11.02;;;18.70;99.90;;;;;;5094762;28;20494;-55
2023/06/25 05:10:50;;;;;;;11.75;10.85;;;18.80;99.90;;;;;;5094202;28;20027;-55
2023/06/25 05:13:15;;;;;;;12.68;11.45;;;18.90;99.90;;;;;;5093924;28;20024;-56
2023/06/25 05:15:41;;;;;;;11.90;10.90;;;18.80;99.90;;;;;;5094122;28;20043;-55
2023/06/25 05:18:10;;;;;;;11.55;10.65;;;18.80;99.90;;;;;;5093438;28;20081;-56
2023/06/25 05:20:37;;;;;;;11.48;10.43;;;18.80;99.90;;;;;;5094526;28;20012;-56
2023/06/25 05:23:07;;;;;;;12.38;11.05;;;18.90;99.90;;;;;;5093955;28;20052;-56
2023/06/25 05:25:33;;;;;;;11.70;10.80;;;18.90;99.90;;;;;;5093839;28;20032;-57
2023/06/25 05:28:01;;;;;;;11.82;10.82;;;18.80;99.90;;;;;;5093615;28;20432;-56
2023/06/25 05:30:31;;;;;;;11.77;10.63;;;18.80;99.90;;;;;;5094455;28;20020;-56
2023/06/25 05:32:57;;;;;;;11.85;10.77;;;18.80;99.90;;;;;;5093885;28;20024;-56
2023/06/25 05:35:23;;;;;;;11.27;10.32;;;18.80;99.90;;;;;;5093733;28;20059;-56
2023/06/25 05:37:49;;;;;;;11.23;10.32;;;18.90;99.90;;;;;;5093787;28;20073;-56
2023/06/25 05:40:15;;;;;;;11.60;10.50;;;18.90;99.90;;;;;;5093574;28;20028;-56
2023/06/25 05:42:41;;;;;;;11.15;10.15;;;18.90;99.90;;;;;;5093236;28;20052;-56
2023/06/25 05:45:08;;;;;;;11.55;10.55;;;18.90;99.90;;;;;;5093731;28;20016;-56
2023/06/25 05:47:33;;;;;;;10.80;9.90;;;19.00;99.90;;;;;;5093638;28;20028;-55
2023/06/25 05:49:59;;;;;;;11.70;10.50;;;19.00;99.90;;;;;;5093514;28;20580;-56
2023/06/25 05:52:25;;;;;;;11.60;10.60;;;19.10;99.90;;;;;;5093840;28;20478;-55
2023/06/25 05:54:51;;;;;;;10.90;10.00;;;19.20;99.90;;;;;;5093396;28;20055;-55
2023/06/25 05:57:16;;;;;;;10.55;9.75;;;19.20;99.90;;;;;;5093047;28;20028;-55
2023/06/25 05:59:42;;;;;;;11.32;10.32;;;19.30;99.90;;;;;;5093342;28;20032;-56
2023/06/25 06:02:08;;;;;;;10.80;9.90;;;19.30;99.90;;;;;;5093588;28;20102;-57
2023/06/25 06:04:34;;;;;;;11.25;10.13;;;19.40;99.90;;;;;;5093367;28;20028;-58
2023/06/25 06:07:00;;;;;;;10.82;9.85;;;19.40;99.90;;;;;;5093183;28;20279;-55
2023/06/25 06:09:26;;;;;;;11.18;10.18;;;19.60;99.90;;;;;;5093029;28;20077;-58
2023/06/25 06:11:52;;;;;;;10.55;9.50;;;19.80;99.90;;;;;;5092612;28;20016;-56
2023/06/25 06:14:17;;;;;;;11.00;9.85;;;20.10;99.90;;;;;;5093067;28;20067;-57
2023/06/25 06:16:43;;;;;;;10.48;9.50;;;20.30;99.90;;;;;;5093194;28;20036;-53
2023/06/25 06:19:09;;;;;;;10.80;9.90;;;20.40;99.90;;;;;;5072706;28;20471;-56
2023/06/25 06:21:34;;;;;;;10.30;9.50;;;20.50;99.90;;;;;;5072475;28;20043;-57
2023/06/25 06:24:00;;;;;;;11.00;9.90;;;20.60;99.90;;;;;;5072621;28;20035;-56
2023/06/25 06:26:26;;;;;;;9.90;9.10;;;20.80;99.90;;;;;;5072341;28;20035;-57
2023/06/25 06:28:52;;;;;;;10.30;9.40;;;20.90;99.90;;;;;;5072035;28;20082;-57
2023/06/25 06:31:18;;;;;;;10.00;9.20;;;20.90;99.90;;;;;;5072004;28;20028;-56
2023/06/25 06:33:44;;;;;;;10.18;9.27;;;21.00;99.90;;;;;;5072401;28;20030;-55
2023/06/25 06:36:10;;;;;;;10.90;9.38;;;21.10;99.90;;;;;;5072214;28;20086;-57
2023/06/25 06:38:35;;;;;;;10.15;9.15;;;21.30;99.90;;;;;;5072288;28;20035;-56
2023/06/25 06:41:01;;;;;;;9.80;8.95;;;21.30;99.90;;;;;;5072461;28;20457;-57
2023/06/25 06:43:27;;;;;;;10.25;9.25;;;21.30;99.90;;;;;;5072167;28;20408;-57
2023/06/25 06:45:53;;;;;;;10.50;9.45;;;21.30;99.90;;;;;;5072212;28;20026;-57
2023/06/25 06:48:18;;;;;;;9.55;8.75;;;21.30;99.90;;;;;;5072112;28;20126;-56
2023/06/25 06:50:44;;;;;;;10.10;9.20;;;21.30;99.90;;;;;;5072397;28;20017;-57
2023/06/25 06:53:09;;;;;;;10.38;9.45;;;21.30;99.90;;;;;;5072147;28;20402;-57
2023/06/25 06:55:35;;;;;;;10.00;9.20;;;21.40;99.90;;;;;;5071804;28;20534;-57
2023/06/25 06:58:01;;;;;;;9.88;8.98;;;21.50;99.90;;;;;;5071873;28;20024;-56
2023/06/25 07:00:27;;;;;;;10.05;8.85;;;21.50;99.90;;;;;;5071996;28;20028;-57
2023/06/25 07:02:57;;;;;;;9.52;8.73;;;21.50;99.90;;;;;;5071704;28;20063;-56
2023/06/25 07:05:23;;;;;;;10.23;9.23;;;21.60;99.90;;;;;;5072065;28;20024;-57
2023/06/25 07:07:48;;;;;;;10.40;9.40;;;21.70;99.90;;;;;;5071514;28;20118;-56
2023/06/25 07:10:14;;;;;;;9.95;9.00;;;21.80;99.90;;;;;;5071688;28;20103;-57
2023/06/25 07:12:40;;;;;;;11.02;9.18;;;21.90;99.90;;;;;;5071851;28;20107;-57
2023/06/25 07:15:06;;;;;;;10.20;9.23;;;22.00;99.90;;;;;;5071606;28;20027;-57
2023/06/25 07:17:32;;;;;;;9.65;8.82;;;22.10;99.90;;;;;;5079746;28;20120;-57
2023/06/25 07:19:58;;;;;;;10.65;9.60;;;22.10;99.90;;;;;;5091622;28;20153;-57
2023/06/25 07:22:23;;;;;;;11.90;9.55;;;22.30;99.90;;;;;;5090368;28;20047;-57
2023/06/25 07:24:49;;;;;;;10.48;9.48;;;22.60;99.90;;;;;;5091453;28;20024;-56
2023/06/25 07:27:16;;;;;;;9.77;8.98;;;22.90;99.90;;;;;;5091648;28;20055;-56
2023/06/25 07:29:42;;;;;;;10.82;8.75;;;23.30;99.90;;;;;;5092077;28;20424;-56
2023/06/25 07:32:08;;;;;;;10.10;9.20;;;23.40;99.90;;;;;;5091548;28;20070;-57
2023/06/25 07:34:33;;;;;;;10.07;9.18;;;23.60;99.90;;;;;;5091464;28;20514;-57
2023/06/25 07:36:59;;;;;;;10.38;9.50;;;23.70;99.90;;;;;;5091282;28;20072;-57
2023/06/25 07:39:29;;;;;;;10.43;9.43;;;24.00;99.90;;;;;;5091913;28;20024;-57
2023/06/25 07:41:56;;;;;;;11.13;10.00;;;24.00;99.90;;;;;;5091231;28;20051;-56
2023/06/25 07:44:22;;;;;;;10.15;9.35;;;24.00;99.90;;;;;;5091376;28;20027;-56
2023/06/25 07:46:48;;;;;;;11.23;10.23;;;24.10;99.90;;;;;;5091740;28;20115;-56
2023/06/25 07:49:14;;;;;;;10.10;9.30;;;24.20;99.90;;;;;;5091259;28;20091;-57
2023/06/25 07:51:42;;;;;;;10.50;9.70;;;24.30;99.90;;;;;;5091391;28;20024;-56
2023/06/25 07:54:08;;;;;;;11.00;10.00;;;24.40;99.90;;;;;;5090966;28;20107;-56
2023/06/25 07:56:34;;;;;;;10.98;10.07;;;24.40;99.90;;;;;;5124231;27;20555;-57
2023/06/25 07:58:59;;;;;;;10.65;9.75;;;24.20;99.90;;;;;;5091191;28;20024;-57
2023/06/25 08:01:25;;;;;;;10.32;9.52;;;24.20;99.90;;;;;;5091212;28;20042;-57
2023/06/25 08:03:50;;;;;;;10.52;9.70;;;24.20;99.90;;;;;;5090993;28;20016;-55
2023/06/25 08:06:16;;;;;;;11.25;10.35;;;24.10;99.90;;;;;;5090905;28;20523;-57
2023/06/25 08:08:42;;;;;;;11.85;10.77;;;24.20;99.90;;;;;;5091054;28;20020;-57
2023/06/25 08:11:07;;;;;;;11.32;10.35;;;24.30;99.90;;;;;;5091456;28;20445;-57
2023/06/25 08:13:33;;;;;;;12.27;11.23;;;24.50;99.90;;;;;;5091070;28;20034;-57
2023/06/25 08:15:59;;;;;;;13.15;12.05;;;24.60;99.90;;;;;;5090939;28;20116;-56
2023/06/25 08:18:24;;;;;;;12.73;11.55;;;24.90;99.90;;;;;;5090966;28;20108;-57
2023/06/25 08:20:50;;;;;;;13.43;12.32;;;24.80;99.90;;;;;;5090814;28;20029;-57
2023/06/25 08:23:15;;;;;;;13.63;12.30;;;24.80;99.90;;;;;;5090714;28;20048;-57
2023/06/25 08:25:41;;;;;;;13.45;12.25;;;24.80;99.90;;;;;;5091184;28;20409;-56
2023/06/25 08:28:07;;;;;;;13.48;12.40;;;24.60;99.90;;;;;;5090950;28;20028;-57
2023/06/25 08:30:33;;;;;;;13.52;12.32;;;24.40;99.90;;;;;;5091260;28;20143;-57
2023/06/25 08:32:59;;;;;;;13.57;12.27;;;24.40;99.90;;;;;;5091005;28;20026;-56
2023/06/25 08:35:24;;;;;;;13.77;12.50;;;24.50;99.90;;;;;;5090455;28;20035;-56
2023/06/25 08:37:50;;;;;;;13.35;12.25;;;24.60;99.90;;;;;;5090985;28;20438;-57
2023/06/25 08:40:19;;;;;;;13.18;12.18;;;24.90;99.90;;;;;;5091212;28;20470;-56
2023/06/25 08:42:44;;;;;;;13.32;12.05;;;25.00;99.90;;;;;;5090727;28;20020;-57
2023/06/25 08:45:13;;;;;;;13.40;12.10;;;25.10;99.90;;;;;;5090820;28;20070;-56
2023/06/25 08:47:40;;;;;;;13.32;12.05;;;25.10;99.90;;;;;;5090649;28;20460;-56
2023/06/25 08:50:09;;;;;;;13.52;12.48;;;25.00;99.90;;;;;;5090377;28;20071;-57
2023/06/25 08:52:35;;;;;;;15.00;13.52;;;25.00;99.90;;;;;;5091481;28;20020;-56
2023/06/25 08:55:01;;;;;;;14.43;13.13;;;25.10;99.90;;;;;;5094535;28;20501;-57
2023/06/25 08:57:27;;;;;;;14.68;13.38;;;25.10;99.90;;;;;;5094524;28;20028;-57
2023/06/25 08:59:52;;;;;;;14.45;13.18;;;25.40;99.90;;;;;;5094449;28;20039;-55
2023/06/25 09:02:18;;;;;;;14.45;13.15;;;25.30;99.90;;;;;;5094553;28;20027;-57
2023/06/25 09:04:46;;;;;;;13.13;11.90;;;25.10;99.90;;;;;;5093986;28;20028;-57
2023/06/25 09:07:19;;;;;;;13.88;12.57;;;25.10;99.90;;;;;;5094647;28;20032;-57
2023/06/25 09:09:51;;;;;;;13.48;12.07;;;25.10;99.90;;;;;;5094396;28;20039;-57
2023/06/25 09:12:22;;;;;;;13.70;12.48;;;25.10;99.90;;;;;;5094194;28;20036;-57
2023/06/25 09:14:48;;;;;;;13.93;12.63;;;25.10;99.90;;;;;;5094253;28;20032;-57
2023/06/25 09:17:19;;;;;;;15.18;12.50;;;25.10;99.90;;;;;;5092455;28;20032;-57
2023/06/25 09:19:44;;;;;;;12.88;11.77;;;25.00;99.90;;;;;;5093987;28;20036;-57
2023/06/25 09:22:10;;;;;;;12.40;11.40;;;25.00;99.90;;;;;;5093966;28;20048;-57
2023/06/25 09:24:42;;;;;;;13.98;12.57;;;25.10;99.90;;;;;;5094179;28;20402;-57
2023/06/25 09:27:10;;;;;;;13.13;11.82;;;25.20;99.90;;;;;;5094015;28;20046;-57
2023/06/25 09:29:36;;;;;;;11.93;10.82;;;25.40;99.90;;;;;;5093907;28;20032;-57
2023/06/25 09:32:09;;;;;;;11.88;10.77;;;25.60;99.90;;;;;;5093723;28;20622;-57
2023/06/25 09:34:36;;;;;;;11.93;10.93;;;26.00;99.90;;;;;;5093416;28;20097;-58
2023/06/25 09:37:03;;;;;;;11.35;10.02;;;26.20;99.90;;;;;;5093798;28;20036;-58
2023/06/25 09:39:30;;;;;;;11.35;10.25;;;26.50;99.90;;;;;;5094066;28;20046;-56
2023/06/25 09:41:56;;;;;;;10.63;9.73;;;26.70;99.90;;;;;;5093599;28;20031;-57
2023/06/25 09:44:25;;;;;;;10.43;9.52;;;26.70;99.90;;;;;;5093742;28;20020;-57
2023/06/25 09:46:53;;;;;;;9.40;8.57;;;26.90;99.90;;;;;;5093442;28;20032;-57
2023/06/25 09:49:19;;;;;;;9.75;8.85;;;26.90;99.90;;;;;;5093664;28;20379;-57
2023/06/25 09:52:08;;;;;;;9.32;8.43;;;26.80;99.90;;;;;;5093490;28;20491;-57
2023/06/25 09:54:37;;;;;;;9.05;8.25;;;26.80;99.90;;;;;;5093501;28;20027;-57
2023/06/25 09:57:09;;;;;;;9.60;8.80;;;26.90;99.90;;;;;;5093337;28;20040;-57
2023/06/25 09:59:35;;;;;;;9.05;8.15;;;27.10;99.90;;;;;;5093172;28;20035;-57
2023/06/25 10:02:02;;;;;;;9.50;8.23;;;27.10;99.90;;;;;;5092845;28;20085;-57
2023/06/25 10:04:30;;;;;;;8.55;7.60;;;27.40;99.90;;;;;;5091924;28;20028;-57
2023/06/25 10:06:57;;;;;;;8.65;7.28;;;27.50;99.90;;;;;;5093599;28;20020;-57
2023/06/25 10:09:23;;;;;;;7.45;6.85;;;27.60;99.90;;;;;;5093322;28;20494;-58
2023/06/25 10:11:50;;;;;;;7.40;6.78;;;27.60;99.90;;;;;;5093135;28;20021;-57
2023/06/25 10:14:15;;;;;;;7.30;6.70;;;27.70;99.90;;;;;;5092963;28;20115;-57
2023/06/25 10:16:49;;;;;;;7.28;6.65;;;27.50;99.90;;;;;;5092413;28;20143;-56
2023/06/25 10:19:23;;;;;;;7.40;6.80;;;27.40;99.90;;;;;;5072765;28;20067;-57
2023/06/25 10:22:24;;;;;;;7.63;6.50;;;27.50;99.90;;;;;;5072947;28;20044;-57
2023/06/25 10:24:52;;;;;;;6.78;6.00;;;27.50;99.90;;;;;;5062147;28;20048;-56
2023/06/25 10:27:23;;;;;;;8.55;6.38;;;27.70;99.90;;;;;;5072586;28;20029;-57
2023/06/25 10:29:49;;;;;;;6.95;6.35;;;27.60;99.90;;;;;;5072343;28;20021;-57
2023/06/25 10:32:21;;;;;;;6.85;6.05;;;27.70;99.90;;;;;;5072519;28;20024;-57
2023/06/25 10:35:00;;;;;;;6.82;6.22;;;27.60;99.90;;;;;;5072317;28;20063;-58
2023/06/25 10:37:33;;;;;;;7.53;6.20;;;27.50;99.90;;;;;;5072287;28;20033;-58
2023/06/25 10:40:07;;;;;;;7.00;6.22;;;27.30;99.90;;;;;;5072419;28;20031;-57
2023/06/25 10:42:35;;;;;;;6.28;5.72;;;27.30;99.90;;;;;;5072026;28;20040;-58
2023/06/25 10:45:01;;;;;;;6.50;5.88;;;27.30;99.90;;;;;;5072653;28;20134;-57
2023/06/25 10:47:27;;;;;;;6.28;5.68;;;27.20;99.90;;;;;;5071771;28;20063;-57
2023/06/25 10:49:53;;;;;;;6.60;6.10;;;27.20;99.90;;;;;;5072270;28;20499;-57
2023/06/25 10:52:19;;;;;;;6.95;5.68;;;27.20;99.90;;;;;;5072062;28;20025;-57
2023/06/25 10:54:44;;;;;;;6.85;5.75;;;27.30;99.90;;;;;;5071945;28;20034;-57
2023/06/25 10:57:12;;;;;;;6.03;5.43;;;27.40;99.90;;;;;;5071714;28;20045;-57
2023/06/25 10:59:39;;;;;;;5.85;5.35;;;27.50;99.90;;;;;;5071217;28;20394;-57
2023/06/25 11:02:08;;;;;;;5.53;5.03;;;27.50;99.90;;;;;;5071361;28;20033;-57
2023/06/25 11:04:34;;;;;;;5.55;4.82;;;27.50;99.90;;;;;;5071771;28;20024;-56
2023/06/25 11:07:00;;;;;;;7.28;5.20;;;27.70;99.90;;;;;;5072116;28;20020;-57
2023/06/25 11:09:26;;;;;;;6.93;5.15;;;27.70;99.90;;;;;;5071713;28;20028;-57
2023/06/25 11:11:52;;;;;;;5.53;4.80;;;27.70;99.90;;;;;;5071922;28;20028;-56
2023/06/25 11:14:18;;;;;;;5.22;4.72;;;27.80;99.90;;;;;;5071287;28;20028;-55
2023/06/25 11:16:47;;;;;;;7.28;5.03;;;27.90;99.90;;;;;;5072773;28;20040;-57
2023/06/25 11:19:13;;;;;;;5.13;4.70;;;28.00;99.90;;;;;;5091761;28;20035;-56
2023/06/25 11:21:38;;;;;;;6.95;4.57;;;28.20;99.90;;;;;;5091495;28;20044;-56
2023/06/25 11:24:10;;;;;;;6.70;5.28;;;28.40;99.90;;;;;;5092046;28;20023;-57
2023/06/25 11:26:42;;;;;;;5.05;4.65;;;28.30;99.90;;;;;;5091107;28;20031;-57
2023/06/25 11:29:09;;;;;;;5.43;4.93;;;28.30;99.90;;;;;;5091690;28;20413;-56
2023/06/25 11:31:50;;;;;;;5.25;4.75;;;28.60;99.90;;;;;;5091594;28;20035;-56
2023/06/25 11:34:23;;;;;;;5.65;4.93;;;28.60;99.90;;;;;;5091512;28;20081;-56
2023/06/25 11:36:48;;;;;;;6.10;5.50;;;28.60;99.90;;;;;;5091564;28;20040;-57
2023/06/25 11:39:15;;;;;;;5.40;4.90;;;28.90;99.90;;;;;;5091643;28;20043;-57
2023/06/25 11:41:42;;;;;;;5.75;5.20;;;29.10;99.90;;;;;;5091308;28;20024;-57
2023/06/25 11:44:21;;;;;;;5.78;4.97;;;28.70;99.90;;;;;;5090937;28;20100;-56
2023/06/25 11:46:50;;;;;;;6.30;5.15;;;28.70;99.90;;;;;;5091432;28;20035;-57
2023/06/25 11:49:18;;;;;;;6.57;5.47;;;28.90;99.90;;;;;;5091700;28;20027;-57
2023/06/25 11:51:44;;;;;;;6.95;5.80;;;28.70;99.90;;;;;;5091369;28;20028;-57
2023/06/25 11:54:09;;;;;;;6.35;5.07;;;28.80;99.90;;;;;;5091309;28;20498;-56
2023/06/25 11:56:35;;;;;;;5.93;5.25;;;28.60;99.90;;;;;;5090935;28;20020;-56
2023/06/25 11:59:01;;;;;;;5.95;5.20;;;28.50;99.90;;;;;;5091476;28;20381;-57
2023/06/25 12:01:29;;;;;;;7.10;4.85;;;28.50;99.90;;;;;;5091006;28;20031;-57
2023/06/25 12:03:54;;;;;;;6.93;5.35;;;28.30;99.90;;;;;;5091161;28;20032;-57
2023/06/25 12:06:20;;;;;;;7.63;5.15;;;28.10;99.90;;;;;;5091261;28;20032;-57
2023/06/25 12:08:46;;;;;;;5.90;5.30;;;28.20;99.90;;;;;;5091449;28;20603;-57
2023/06/25 12:11:11;;;;;;;6.15;5.43;;;27.90;99.90;;;;;;5091075;28;20514;-56
2023/06/25 12:13:37;;;;;;;5.28;4.78;;;27.90;99.90;;;;;;5090802;28;20028;-58
2023/06/25 12:16:03;;;;;;;5.57;4.97;;;28.00;99.90;;;;;;5091474;28;20039;-58
2023/06/25 12:18:28;;;;;;;5.40;4.90;;;28.30;99.90;;;;;;5090879;28;20423;-58
2023/06/25 12:20:54;;;;;;;4.82;4.43;;;28.30;99.90;;;;;;5090987;28;20024;-59
2023/06/25 12:23:20;;;;;;;6.00;5.40;;;28.40;99.90;;;;;;5091311;28;20049;-58
2023/06/25 12:25:45;;;;;;;6.75;5.10;;;28.30;99.90;;;;;;5090991;28;20024;-58
2023/06/25 12:28:11;;;;;;;5.70;4.82;;;28.30;99.90;;;;;;5092153;28;20028;-58
2023/06/25 12:30:37;;;;;;;5.68;5.13;;;28.30;99.90;;;;;;5094950;28;20024;-58
2023/06/25 12:33:02;;;;;;;5.00;4.60;;;28.30;99.90;;;;;;5095022;28;20111;-58
2023/06/25 12:35:28;;;;;;;5.00;4.47;;;28.40;99.90;;;;;;5094854;28;20051;-58